Airfield :
LOGIN :

Register | Disclaimer

   EN    FR    IT 

 










Legend :    VFR   Marginal VFR   IFR   Intensive IFR   Very Intensive IFR
Visi :
Ceiling :
>= 8 km
>= 3000ft
5 to 8 km
1000 to 3000 ft
1500m to 5 km
500 to 1000 ft
800 to 1500m
200 to 500 ft
< 800m
< 200 ft
Symbols :   Thunderstorms  Fog  Heavy snow  Heavy precipitations  Wind > 20 kt
SIGMETs :     Misc.  Thunderstorms  Icing  Turbulence  Mountain Waves  Volcanic Ashes






- Airport Elevation : 257 ft
- IATA code : MAN


EGCC - Manchester

CURRENT METAR :
  • 271220Z AUTO 25013KT 0500 +RA //////CB 16/08 Q1006 TEMPO 9999 NSW

EXPIRED METARs :
  • 271150Z 24013KT 9999 FEW032 15/08 Q1006
  • 271120Z AUTO 24015KT 0450 +RA FEW034/// //////CB 14/10 Q1005
  • 271050Z 24012KT 9999 SCT021CB 13/10 Q1005 TEMPO SHRA
  • 271020Z AUTO 24013KT 9999 SCT017/// BKN023/// //////TCU 13/10 Q1004
  • 270950Z AUTO 24009KT 9999 -RA SCT018/// BKN023/// BKN033/// //////TCU 11/10 Q1004 RESHRA RERA TEMPO SHRA

TAF TAF EGCC
Valid from the 27 at 12:00 until the 28 at 18:00 UTC


271100Z 2712/2818 25010KT 9999 SCT020
PROB30
TEMPO 2712/2721 26015G25KT 6000 SHRA
BECMG 2718/2721 18009KT
TEMPO 2809/2818 6000 RA SHRA BKN012
PROB30
TEMPO 2811/2815 4000 +RA BKN009
ATIS : +44 161 499 2324



MET'MAP, your aeronautical weather chart ! - Copyright ORBIFLY December 2007 - Disclaimer

ORBIFLY MET'MAP TEAM :

Programming & Development : Alexandra Zaïnal
Concept & original design : Baudouin d'Aumeries
Assistance for programming : Marc-Olivier Méhu
Technical & hardware support : Manuel Goepfert

Contact : metmap@orbifly.com




SOURCES & CREDITS :

   NOAA